CYVO

Val-D'or Airport

Val-D'or, , Canada
METAR CYVO 222300Z 16005KT 15SM BKN034 01/M00 A2999 RMK SC7 SLP179
Observed Flight Rules
Oct-22 @ 23:00 UTC (52 minutes ago) Visual Flight Rules
Wind Visibility Clouds
160° at 5 knots 15 miles
  • Broken at 3,400' AGL
Temperatures Readings
Current 1°C / 34°F
Dewpoint 0°C / 32°F
Humidity 93%
Altimeter 29.99" Hg
Pressure 1017.9 hPa
Elevation 337
METAR CYVO 222300Z 16005KT 15SM BKN034 01/M00 A2999 RMK SC7 SLP179
Observed Flight Rules
Oct-22 @ 23:00 UTC
(52 minutes ago)
VFR
Wind Visibility
160° at 5 knots 15 miles
Clouds
  • Broken at 3,400' AGL
Temperature Dewpoint
1°C / 34°F 0°C / 32°F
Humidity Altimeter Pressure
93% 29.99" Hg 1017.9 hPa